sensor_id;sensor_type;location;lat;lon;timestamp;pressure;altitude;pressure_sealevel;temperature;humidity
61757;BME280;57225;61.460;24.060;2023-03-23T00:01:40;97506.84;;;2.94;100.00
61757;BME280;57225;61.460;24.060;2023-03-23T00:04:25;97508.97;;;2.82;100.00
61757;BME280;57225;61.460;24.060;2023-03-23T00:07:10;97501.91;;;2.81;100.00
61757;BME280;57225;61.460;24.060;2023-03-23T00:09:56;97492.78;;;2.88;100.00
61757;BME280;57225;61.460;24.060;2023-03-23T00:12:41;97485.00;;;2.83;100.00
61757;BME280;57225;61.460;24.060;2023-03-23T00:15:26;97480.09;;;2.71;100.00
61757;BME280;57225;61.460;24.060;2023-03-23T00:18:10;97476.22;;;2.92;100.00
61757;BME280;57225;61.460;24.060;2023-03-23T00:24:20;97472.28;;;2.93;100.00
61757;BME280;57225;61.460;24.060;2023-03-23T00:27:05;97473.94;;;2.87;100.00
61757;BME280;57225;61.460;24.060;2023-03-23T00:29:49;97477.66;;;3.00;100.00
61757;BME280;57225;61.460;24.060;2023-03-23T00:32:36;97458.78;;;3.02;100.00
61757;BME280;57225;61.460;24.060;2023-03-23T00:35:21;97452.50;;;3.01;100.00
61757;BME280;57225;61.460;24.060;2023-03-23T00:38:05;97453.69;;;3.00;100.00
61757;BME280;57225;61.460;24.060;2023-03-23T00:40:51;97449.72;;;2.78;100.00
61757;BME280;57225;61.460;24.060;2023-03-23T00:43:36;97435.81;;;2.89;100.00
61757;BME280;57225;61.460;24.060;2023-03-23T00:46:20;97442.38;;;2.95;100.00
61757;BME280;57225;61.460;24.060;2023-03-23T00:49:05;97435.13;;;3.04;100.00
61757;BME280;57225;61.460;24.060;2023-03-23T00:51:49;97436.16;;;3.14;100.00
61757;BME280;57225;61.460;24.060;2023-03-23T00:54:34;97426.59;;;2.99;100.00
61757;BME280;57225;61.460;24.060;2023-03-23T00:57:20;97422.16;;;2.81;100.00
61757;BME280;57225;61.460;24.060;2023-03-23T01:00:08;97420.69;;;2.77;100.00
61757;BME280;57225;61.460;24.060;2023-03-23T01:02:54;97401.66;;;2.86;100.00
61757;BME280;57225;61.460;24.060;2023-03-23T01:05:40;97415.09;;;3.04;100.00
61757;BME280;57225;61.460;24.060;2023-03-23T01:08:24;97411.16;;;3.05;100.00
61757;BME280;57225;61.460;24.060;2023-03-23T01:11:13;97404.09;;;3.04;100.00
61757;BME280;57225;61.460;24.060;2023-03-23T01:13:58;97397.06;;;3.03;100.00
61757;BME280;57225;61.460;24.060;2023-03-23T01:16:44;97384.63;;;2.95;100.00
61757;BME280;57225;61.460;24.060;2023-03-23T01:19:29;97389.59;;;3.03;100.00
61757;BME280;57225;61.460;24.060;2023-03-23T01:22:13;97386.09;;;2.99;100.00
61757;BME280;57225;61.460;24.060;2023-03-23T01:24:58;97379.94;;;2.92;100.00
61757;BME280;57225;61.460;24.060;2023-03-23T01:27:43;97389.88;;;2.86;100.00
61757;BME280;57225;61.460;24.060;2023-03-23T01:30:27;97368.00;;;2.78;100.00
61757;BME280;57225;61.460;24.060;2023-03-23T01:33:12;97373.03;;;2.83;100.00
61757;BME280;57225;61.460;24.060;2023-03-23T01:35:56;97361.31;;;2.79;100.00
61757;BME280;57225;61.460;24.060;2023-03-23T01:38:43;97359.00;;;2.98;100.00
61757;BME280;57225;61.460;24.060;2023-03-23T01:41:28;97364.34;;;3.08;100.00
61757;BME280;57225;61.460;24.060;2023-03-23T01:46:59;97368.22;;;3.11;100.00
61757;BME280;57225;61.460;24.060;2023-03-23T01:49:46;97347.41;;;3.10;100.00
61757;BME280;57225;61.460;24.060;2023-03-23T01:52:32;97345.44;;;3.30;100.00
61757;BME280;57225;61.460;24.060;2023-03-23T01:55:19;97342.25;;;3.12;100.00
61757;BME280;57225;61.460;24.060;2023-03-23T01:58:04;97336.50;;;3.26;100.00
61757;BME280;57225;61.460;24.060;2023-03-23T02:00:50;97335.06;;;3.18;100.00
61757;BME280;57225;61.460;24.060;2023-03-23T02:03:39;97342.69;;;3.30;100.00
61757;BME280;57225;61.460;24.060;2023-03-23T02:06:25;97331.69;;;3.30;100.00
61757;BME280;57225;61.460;24.060;2023-03-23T02:09:12;97330.88;;;3.10;100.00
61757;BME280;57225;61.460;24.060;2023-03-23T02:12:01;97339.88;;;3.14;100.00
61757;BME280;57225;61.460;24.060;2023-03-23T02:14:46;97335.31;;;3.27;100.00
61757;BME280;57225;61.460;24.060;2023-03-23T02:17:32;97342.41;;;3.44;100.00
61757;BME280;57225;61.460;24.060;2023-03-23T02:24:03;97344.91;;;3.39;100.00
61757;BME280;57225;61.460;24.060;2023-03-23T02:27:08;97346.88;;;3.38;100.00
61757;BME280;57225;61.460;24.060;2023-03-23T02:30:31;97341.78;;;3.37;100.00
61757;BME280;57225;61.460;24.060;2023-03-23T02:33:36;97342.16;;;3.58;100.00
61757;BME280;57225;61.460;24.060;2023-03-23T02:36:28;97338.53;;;3.42;100.00
61757;BME280;57225;61.460;24.060;2023-03-23T02:39:22;97335.63;;;3.49;100.00
61757;BME280;57225;61.460;24.060;2023-03-23T02:42:11;97343.19;;;3.45;100.00
61757;BME280;57225;61.460;24.060;2023-03-23T02:44:58;97350.91;;;3.53;100.00
61757;BME280;57225;61.460;24.060;2023-03-23T02:47:49;97349.22;;;3.59;100.00
61757;BME280;57225;61.460;24.060;2023-03-23T02:50:35;97344.81;;;3.62;100.00
61757;BME280;57225;61.460;24.060;2023-03-23T02:53:23;97350.25;;;3.66;100.00
61757;BME280;57225;61.460;24.060;2023-03-23T02:56:09;97349.91;;;3.63;100.00
61757;BME280;57225;61.460;24.060;2023-03-23T02:58:55;97347.66;;;3.58;100.00
61757;BME280;57225;61.460;24.060;2023-03-23T03:04:25;97359.22;;;3.50;100.00
61757;BME280;57225;61.460;24.060;2023-03-23T03:16:04;97369.41;;;3.73;100.00
61757;BME280;57225;61.460;24.060;2023-03-23T03:18:59;97367.56;;;3.66;100.00
61757;BME280;57225;61.460;24.060;2023-03-23T03:21:47;97366.44;;;3.63;100.00
61757;BME280;57225;61.460;24.060;2023-03-23T03:24:33;97372.63;;;3.68;100.00
61757;BME280;57225;61.460;24.060;2023-03-23T03:27:21;97367.25;;;3.60;100.00
61757;BME280;57225;61.460;24.060;2023-03-23T03:30:09;97373.34;;;3.72;100.00
61757;BME280;57225;61.460;24.060;2023-03-23T03:32:55;97362.19;;;3.59;100.00
61757;BME280;57225;61.460;24.060;2023-03-23T03:35:41;97373.13;;;3.62;100.00
61757;BME280;57225;61.460;24.060;2023-03-23T03:38:27;97358.38;;;3.73;100.00
61757;BME280;57225;61.460;24.060;2023-03-23T03:41:12;97371.94;;;3.63;100.00
61757;BME280;57225;61.460;24.060;2023-03-23T03:43:56;97354.00;;;3.55;100.00
61757;BME280;57225;61.460;24.060;2023-03-23T03:46:41;97355.91;;;3.58;100.00
61757;BME280;57225;61.460;24.060;2023-03-23T03:49:26;97357.03;;;3.61;100.00
61757;BME280;57225;61.460;24.060;2023-03-23T03:52:10;97367.63;;;3.62;100.00
61757;BME280;57225;61.460;24.060;2023-03-23T03:54:55;97373.25;;;3.55;100.00
61757;BME280;57225;61.460;24.060;2023-03-23T03:57:41;97379.34;;;3.47;100.00
61757;BME280;57225;61.460;24.060;2023-03-23T04:00:26;97364.44;;;3.44;100.00
61757;BME280;57225;61.460;24.060;2023-03-23T04:03:11;97357.81;;;3.42;100.00
61757;BME280;57225;61.460;24.060;2023-03-23T04:05:55;97377.50;;;3.40;100.00
61757;BME280;57225;61.460;24.060;2023-03-23T04:08:40;97361.63;;;3.28;100.00
61757;BME280;57225;61.460;24.060;2023-03-23T04:11:25;97373.97;;;3.40;100.00
61757;BME280;57225;61.460;24.060;2023-03-23T04:14:10;97373.69;;;3.34;100.00
61757;BME280;57225;61.460;24.060;2023-03-23T04:16:54;97373.06;;;3.46;100.00
61757;BME280;57225;61.460;24.060;2023-03-23T04:19:40;97368.81;;;3.42;100.00
61757;BME280;57225;61.460;24.060;2023-03-23T04:22:26;97379.91;;;3.58;100.00
61757;BME280;57225;61.460;24.060;2023-03-23T04:25:14;97378.50;;;3.50;100.00
61757;BME280;57225;61.460;24.060;2023-03-23T04:27:59;97379.06;;;3.41;100.00
61757;BME280;57225;61.460;24.060;2023-03-23T04:30:46;97390.84;;;3.42;100.00
61757;BME280;57225;61.460;24.060;2023-03-23T04:33:32;97386.38;;;3.28;100.00
61757;BME280;57225;61.460;24.060;2023-03-23T04:36:17;97382.00;;;3.31;100.00
61757;BME280;57225;61.460;24.060;2023-03-23T04:39:02;97388.25;;;3.35;100.00
61757;BME280;57225;61.460;24.060;2023-03-23T04:41:47;97384.34;;;3.32;100.00
61757;BME280;57225;61.460;24.060;2023-03-23T04:44:31;97374.94;;;3.30;100.00
61757;BME280;57225;61.460;24.060;2023-03-23T04:47:16;97391.41;;;3.33;100.00
61757;BME280;57225;61.460;24.060;2023-03-23T04:50:01;97389.00;;;3.35;100.00
61757;BME280;57225;61.460;24.060;2023-03-23T04:52:45;97396.97;;;3.30;100.00
61757;BME280;57225;61.460;24.060;2023-03-23T04:55:34;97391.16;;;3.24;100.00
61757;BME280;57225;61.460;24.060;2023-03-23T04:58:22;97402.19;;;3.24;100.00
61757;BME280;57225;61.460;24.060;2023-03-23T05:01:08;97397.03;;;3.26;100.00
61757;BME280;57225;61.460;24.060;2023-03-23T05:03:52;97397.88;;;3.23;100.00
61757;BME280;57225;61.460;24.060;2023-03-23T05:06:37;97392.75;;;3.45;100.00
61757;BME280;57225;61.460;24.060;2023-03-23T05:09:21;97401.63;;;3.33;100.00
61757;BME280;57225;61.460;24.060;2023-03-23T05:12:07;97389.47;;;3.30;100.00
61757;BME280;57225;61.460;24.060;2023-03-23T05:14:53;97388.50;;;3.20;100.00
61757;BME280;57225;61.460;24.060;2023-03-23T05:17:37;97387.59;;;3.27;100.00
61757;BME280;57225;61.460;24.060;2023-03-23T05:20:22;97393.28;;;3.36;100.00
61757;BME280;57225;61.460;24.060;2023-03-23T05:23:07;97385.16;;;3.29;100.00
61757;BME280;57225;61.460;24.060;2023-03-23T05:25:53;97400.84;;;3.32;100.00
61757;BME280;57225;61.460;24.060;2023-03-23T05:28:38;97389.31;;;3.17;100.00
61757;BME280;57225;61.460;24.060;2023-03-23T05:31:22;97415.88;;;3.28;100.00
61757;BME280;57225;61.460;24.060;2023-03-23T05:34:08;97406.47;;;3.25;100.00
61757;BME280;57225;61.460;24.060;2023-03-23T05:36:52;97401.22;;;3.34;100.00
61757;BME280;57225;61.460;24.060;2023-03-23T05:39:36;97394.78;;;3.21;100.00
61757;BME280;57225;61.460;24.060;2023-03-23T05:42:22;97414.63;;;3.32;100.00
61757;BME280;57225;61.460;24.060;2023-03-23T05:45:08;97411.50;;;3.30;100.00
61757;BME280;57225;61.460;24.060;2023-03-23T05:47:54;97419.16;;;3.19;100.00
61757;BME280;57225;61.460;24.060;2023-03-23T05:50:40;97417.63;;;3.18;100.00
61757;BME280;57225;61.460;24.060;2023-03-23T05:53:25;97399.09;;;3.22;100.00
61757;BME280;57225;61.460;24.060;2023-03-23T05:56:10;97394.50;;;3.15;100.00
61757;BME280;57225;61.460;24.060;2023-03-23T05:58:54;97405.72;;;3.24;100.00
61757;BME280;57225;61.460;24.060;2023-03-23T06:01:39;97357.66;;;2.86;100.00
61757;BME280;57225;61.460;24.060;2023-03-23T06:04:24;97362.44;;;2.82;100.00
61757;BME280;57225;61.460;24.060;2023-03-23T06:07:10;97374.69;;;3.01;100.00
61757;BME280;57225;61.460;24.060;2023-03-23T06:09:58;97384.13;;;3.00;100.00
61757;BME280;57225;61.460;24.060;2023-03-23T06:12:43;97389.28;;;2.98;100.00
61757;BME280;57225;61.460;24.060;2023-03-23T06:15:27;97430.88;;;3.23;100.00
61757;BME280;57225;61.460;24.060;2023-03-23T06:18:24;97428.56;;;3.21;100.00
61757;BME280;57225;61.460;24.060;2023-03-23T06:21:24;97438.81;;;3.21;100.00
61757;BME280;57225;61.460;24.060;2023-03-23T06:24:22;97403.81;;;2.98;100.00
61757;BME280;57225;61.460;24.060;2023-03-23T06:27:07;97456.38;;;3.27;100.00
61757;BME280;57225;61.460;24.060;2023-03-23T06:29:52;97448.53;;;3.26;100.00
61757;BME280;57225;61.460;24.060;2023-03-23T06:32:39;97462.31;;;3.26;100.00
61757;BME280;57225;61.460;24.060;2023-03-23T06:35:23;97460.34;;;3.26;100.00
61757;BME280;57225;61.460;24.060;2023-03-23T06:56:18;97471.44;;;2.96;100.00
61757;BME280;57225;61.460;24.060;2023-03-23T06:59:02;97474.09;;;3.03;100.00
61757;BME280;57225;61.460;24.060;2023-03-23T07:01:47;97475.19;;;3.09;100.00
61757;BME280;57225;61.460;24.060;2023-03-23T07:04:32;97458.19;;;3.14;100.00
61757;BME280;57225;61.460;24.060;2023-03-23T07:07:16;97469.19;;;3.37;100.00
61757;BME280;57225;61.460;24.060;2023-03-23T07:10:04;97476.66;;;3.37;100.00
61757;BME280;57225;61.460;24.060;2023-03-23T07:12:48;97460.13;;;3.37;100.00
61757;BME280;57225;61.460;24.060;2023-03-23T07:15:33;97467.91;;;3.42;100.00
61757;BME280;57225;61.460;24.060;2023-03-23T07:18:18;97459.72;;;3.38;100.00
61757;BME280;57225;61.460;24.060;2023-03-23T07:21:23;97462.09;;;3.36;100.00
61757;BME280;57225;61.460;24.060;2023-03-23T07:24:11;97470.34;;;3.59;100.00
61757;BME280;57225;61.460;24.060;2023-03-23T07:26:58;97485.31;;;3.58;100.00
61757;BME280;57225;61.460;24.060;2023-03-23T07:29:42;97473.81;;;3.63;100.00
61757;BME280;57225;61.460;24.060;2023-03-23T07:32:28;97465.56;;;3.63;100.00
61757;BME280;57225;61.460;24.060;2023-03-23T07:35:13;97476.44;;;3.71;100.00
61757;BME280;57225;61.460;24.060;2023-03-23T07:37:59;97485.06;;;3.73;100.00
61757;BME280;57225;61.460;24.060;2023-03-23T07:40:45;97483.50;;;3.72;100.00
61757;BME280;57225;61.460;24.060;2023-03-23T07:43:30;97498.41;;;3.74;100.00
61757;BME280;57225;61.460;24.060;2023-03-23T07:46:15;97499.19;;;3.75;100.00
61757;BME280;57225;61.460;24.060;2023-03-23T07:49:00;97481.81;;;3.78;100.00
61757;BME280;57225;61.460;24.060;2023-03-23T07:51:48;97500.19;;;3.84;100.00
61757;BME280;57225;61.460;24.060;2023-03-23T07:54:33;97510.00;;;3.85;100.00
61757;BME280;57225;61.460;24.060;2023-03-23T07:57:18;97504.44;;;3.89;100.00
61757;BME280;57225;61.460;24.060;2023-03-23T08:00:03;97501.31;;;3.87;100.00
61757;BME280;57225;61.460;24.060;2023-03-23T08:02:55;97514.63;;;3.92;100.00
61757;BME280;57225;61.460;24.060;2023-03-23T08:05:42;97511.88;;;3.92;100.00
61757;BME280;57225;61.460;24.060;2023-03-23T08:08:26;97516.25;;;4.09;100.00
61757;BME280;57225;61.460;24.060;2023-03-23T08:11:10;97516.09;;;4.16;100.00
61757;BME280;57225;61.460;24.060;2023-03-23T08:13:55;97509.72;;;4.19;100.00
61757;BME280;57225;61.460;24.060;2023-03-23T08:16:40;97496.97;;;4.09;100.00
61757;BME280;57225;61.460;24.060;2023-03-23T08:19:25;97513.69;;;4.18;100.00
61757;BME280;57225;61.460;24.060;2023-03-23T08:22:09;97522.97;;;4.28;100.00
61757;BME280;57225;61.460;24.060;2023-03-23T08:24:54;97528.84;;;4.30;100.00
61757;BME280;57225;61.460;24.060;2023-03-23T08:27:38;97532.94;;;4.22;100.00
61757;BME280;57225;61.460;24.060;2023-03-23T08:30:27;97520.91;;;4.12;100.00
61757;BME280;57225;61.460;24.060;2023-03-23T08:33:13;97525.44;;;4.22;100.00
61757;BME280;57225;61.460;24.060;2023-03-23T08:35:58;97522.59;;;4.26;100.00
61757;BME280;57225;61.460;24.060;2023-03-23T08:38:43;97527.13;;;4.36;100.00
61757;BME280;57225;61.460;24.060;2023-03-23T08:41:28;97534.41;;;4.46;100.00
61757;BME280;57225;61.460;24.060;2023-03-23T08:44:12;97544.88;;;4.55;100.00
61757;BME280;57225;61.460;24.060;2023-03-23T08:46:57;97541.06;;;4.49;100.00
61757;BME280;57225;61.460;24.060;2023-03-23T08:49:42;97536.88;;;4.40;100.00
61757;BME280;57225;61.460;24.060;2023-03-23T08:52:26;97528.09;;;4.26;100.00
61757;BME280;57225;61.460;24.060;2023-03-23T08:55:11;97530.16;;;4.41;100.00
61757;BME280;57225;61.460;24.060;2023-03-23T08:57:56;97554.13;;;4.44;100.00
61757;BME280;57225;61.460;24.060;2023-03-23T09:00:43;97563.94;;;4.45;100.00
61757;BME280;57225;61.460;24.060;2023-03-23T09:03:28;97563.66;;;4.40;100.00
61757;BME280;57225;61.460;24.060;2023-03-23T09:06:13;97571.84;;;4.43;100.00
61757;BME280;57225;61.460;24.060;2023-03-23T09:08:57;97572.00;;;4.36;100.00
61757;BME280;57225;61.460;24.060;2023-03-23T09:11:44;97568.97;;;4.51;100.00
61757;BME280;57225;61.460;24.060;2023-03-23T09:14:29;97575.69;;;4.50;100.00
61757;BME280;57225;61.460;24.060;2023-03-23T09:17:14;97577.78;;;4.62;100.00
61757;BME280;57225;61.460;24.060;2023-03-23T09:19:58;97583.94;;;4.50;100.00
61757;BME280;57225;61.460;24.060;2023-03-23T09:22:45;97586.94;;;4.59;100.00
61757;BME280;57225;61.460;24.060;2023-03-23T09:25:30;97589.28;;;4.60;100.00
61757;BME280;57225;61.460;24.060;2023-03-23T09:28:15;97585.09;;;4.52;100.00
61757;BME280;57225;61.460;24.060;2023-03-23T09:30:59;97598.88;;;4.52;100.00
61757;BME280;57225;61.460;24.060;2023-03-23T09:33:43;97605.53;;;4.35;100.00
61757;BME280;57225;61.460;24.060;2023-03-23T09:36:29;97608.84;;;4.46;100.00
61757;BME280;57225;61.460;24.060;2023-03-23T09:39:14;97619.75;;;4.53;100.00
61757;BME280;57225;61.460;24.060;2023-03-23T09:42:07;97613.22;;;4.43;100.00
61757;BME280;57225;61.460;24.060;2023-03-23T09:45:23;97624.13;;;4.51;100.00
61757;BME280;57225;61.460;24.060;2023-03-23T09:51:27;97629.34;;;4.45;100.00
61757;BME280;57225;61.460;24.060;2023-03-23T09:54:30;97631.00;;;4.42;100.00
61757;BME280;57225;61.460;24.060;2023-03-23T10:03:20;97637.72;;;4.61;100.00
61757;BME280;57225;61.460;24.060;2023-03-23T10:06:09;97648.59;;;4.68;100.00
61757;BME280;57225;61.460;24.060;2023-03-23T10:08:57;97649.44;;;4.65;100.00
61757;BME280;57225;61.460;24.060;2023-03-23T10:11:50;97650.50;;;4.71;100.00
61757;BME280;57225;61.460;24.060;2023-03-23T10:17:42;97656.44;;;4.70;100.00
61757;BME280;57225;61.460;24.060;2023-03-23T10:20:57;97656.88;;;4.49;100.00
61757;BME280;57225;61.460;24.060;2023-03-23T10:24:02;97673.25;;;4.56;100.00
61757;BME280;57225;61.460;24.060;2023-03-23T10:27:19;97678.03;;;4.55;100.00
61757;BME280;57225;61.460;24.060;2023-03-23T10:30:48;97684.13;;;4.66;100.00
61757;BME280;57225;61.460;24.060;2023-03-23T10:33:20;97684.16;;;4.63;100.00
61757;BME280;57225;61.460;24.060;2023-03-23T10:36:31;97701.78;;;4.69;100.00
61757;BME280;57225;61.460;24.060;2023-03-23T10:39:20;97694.38;;;4.66;100.00
61757;BME280;57225;61.460;24.060;2023-03-23T10:42:05;97712.91;;;4.65;100.00
61757;BME280;57225;61.460;24.060;2023-03-23T10:44:53;97703.59;;;4.56;100.00
61757;BME280;57225;61.460;24.060;2023-03-23T10:47:40;97711.41;;;4.37;100.00
61757;BME280;57225;61.460;24.060;2023-03-23T10:50:30;97712.19;;;4.38;100.00
61757;BME280;57225;61.460;24.060;2023-03-23T10:53:37;97725.56;;;4.39;100.00
61757;BME280;57225;61.460;24.060;2023-03-23T10:56:27;97732.41;;;4.31;100.00
61757;BME280;57225;61.460;24.060;2023-03-23T10:59:39;97735.22;;;4.28;100.00
61757;BME280;57225;61.460;24.060;2023-03-23T11:02:20;97739.84;;;4.34;100.00
61757;BME280;57225;61.460;24.060;2023-03-23T11:05:20;97747.69;;;4.36;100.00
61757;BME280;57225;61.460;24.060;2023-03-23T11:08:12;97743.78;;;4.33;100.00
61757;BME280;57225;61.460;24.060;2023-03-23T11:11:07;97742.69;;;4.51;100.00
61757;BME280;57225;61.460;24.060;2023-03-23T11:14:11;97757.94;;;4.59;100.00
61757;BME280;57225;61.460;24.060;2023-03-23T11:16:59;97756.63;;;4.67;100.00
61757;BME280;57225;61.460;24.060;2023-03-23T11:19:44;97762.00;;;4.74;100.00
61757;BME280;57225;61.460;24.060;2023-03-23T11:22:31;97769.66;;;4.86;100.00
61757;BME280;57225;61.460;24.060;2023-03-23T11:25:16;97763.91;;;4.77;100.00
61757;BME280;57225;61.460;24.060;2023-03-23T11:28:01;97765.97;;;4.73;100.00
61757;BME280;57225;61.460;24.060;2023-03-23T11:30:46;97769.31;;;4.84;100.00
61757;BME280;57225;61.460;24.060;2023-03-23T11:33:37;97776.22;;;4.72;100.00
61757;BME280;57225;61.460;24.060;2023-03-23T11:36:36;97785.03;;;4.64;100.00
61757;BME280;57225;61.460;24.060;2023-03-23T11:39:27;97790.53;;;4.64;100.00
61757;BME280;57225;61.460;24.060;2023-03-23T11:42:22;97791.28;;;4.68;100.00
61757;BME280;57225;61.460;24.060;2023-03-23T11:45:31;97802.34;;;4.64;100.00
61757;BME280;57225;61.460;24.060;2023-03-23T11:54:34;97791.50;;;4.77;100.00
61757;BME280;57225;61.460;24.060;2023-03-23T11:57:21;97791.28;;;4.68;100.00
61757;BME280;57225;61.460;24.060;2023-03-23T12:00:19;97808.75;;;4.81;99.86
61757;BME280;57225;61.460;24.060;2023-03-23T12:03:05;97786.28;;;4.82;98.60
61757;BME280;57225;61.460;24.060;2023-03-23T12:06:05;97797.59;;;4.88;99.63
61757;BME280;57225;61.460;24.060;2023-03-23T12:15:34;97810.69;;;4.84;99.03
61757;BME280;57225;61.460;24.060;2023-03-23T12:18:48;97816.44;;;4.93;99.73
61757;BME280;57225;61.460;24.060;2023-03-23T12:34:40;97824.78;;;4.66;97.68
61757;BME280;57225;61.460;24.060;2023-03-23T12:49:27;97835.06;;;4.66;98.15
61757;BME280;57225;61.460;24.060;2023-03-23T12:52:53;97833.84;;;4.67;98.55
61757;BME280;57225;61.460;24.060;2023-03-23T12:55:45;97836.72;;;4.83;98.17
61757;BME280;57225;61.460;24.060;2023-03-23T12:58:38;97841.06;;;4.61;97.20
61757;BME280;57225;61.460;24.060;2023-03-23T13:01:28;97837.63;;;4.76;97.36
61757;BME280;57225;61.460;24.060;2023-03-23T13:04:39;97841.63;;;4.95;95.07
61757;BME280;57225;61.460;24.060;2023-03-23T13:07:30;97845.28;;;4.89;95.83
61757;BME280;57225;61.460;24.060;2023-03-23T13:10:28;97853.06;;;4.74;96.86
61757;BME280;57225;61.460;24.060;2023-03-23T13:13:22;97849.91;;;4.72;96.80
61757;BME280;57225;61.460;24.060;2023-03-23T13:16:28;97866.66;;;4.61;97.44
61757;BME280;57225;61.460;24.060;2023-03-23T13:19:28;97856.16;;;4.26;100.00
61757;BME280;57225;61.460;24.060;2023-03-23T13:22:25;97866.56;;;4.41;97.99
61757;BME280;57225;61.460;24.060;2023-03-23T13:26:00;97864.91;;;4.48;96.85
61757;BME280;57225;61.460;24.060;2023-03-23T13:28:58;97874.66;;;4.25;95.89
61757;BME280;57225;61.460;24.060;2023-03-23T13:31:43;97865.41;;;4.12;96.16
61757;BME280;57225;61.460;24.060;2023-03-23T13:34:30;97881.59;;;4.10;97.97
61757;BME280;57225;61.460;24.060;2023-03-23T13:43:00;97872.91;;;4.38;96.03
61757;BME280;57225;61.460;24.060;2023-03-23T13:45:47;97888.88;;;4.51;94.96
61757;BME280;57225;61.460;24.060;2023-03-23T13:48:41;97885.97;;;4.61;95.45
61757;BME280;57225;61.460;24.060;2023-03-23T13:51:35;97886.59;;;4.69;95.92
61757;BME280;57225;61.460;24.060;2023-03-23T13:57:33;97894.88;;;4.69;92.55
61757;BME280;57225;61.460;24.060;2023-03-23T14:03:25;97892.13;;;4.69;91.99
61757;BME280;57225;61.460;24.060;2023-03-23T14:06:14;97886.16;;;4.47;93.88
61757;BME280;57225;61.460;24.060;2023-03-23T14:09:06;97896.84;;;4.45;92.33
61757;BME280;57225;61.460;24.060;2023-03-23T14:12:01;97902.66;;;4.51;92.39
61757;BME280;57225;61.460;24.060;2023-03-23T14:15:00;97899.41;;;4.56;92.88
61757;BME280;57225;61.460;24.060;2023-03-23T14:17:49;97901.94;;;4.47;92.25
61757;BME280;57225;61.460;24.060;2023-03-23T14:20:37;97909.50;;;4.42;94.79
61757;BME280;57225;61.460;24.060;2023-03-23T14:23:23;97919.31;;;4.43;94.64
61757;BME280;57225;61.460;24.060;2023-03-23T14:26:16;97927.94;;;4.45;93.37
61757;BME280;57225;61.460;24.060;2023-03-23T14:29:00;97918.38;;;4.54;93.09
61757;BME280;57225;61.460;24.060;2023-03-23T14:31:54;97924.03;;;4.43;92.56
61757;BME280;57225;61.460;24.060;2023-03-23T14:34:39;97929.78;;;4.29;93.67
61757;BME280;57225;61.460;24.060;2023-03-23T14:37:23;97925.03;;;4.29;93.00
61757;BME280;57225;61.460;24.060;2023-03-23T14:40:16;97923.78;;;4.34;92.49
61757;BME280;57225;61.460;24.060;2023-03-23T14:43:01;97924.19;;;4.32;92.77
61757;BME280;57225;61.460;24.060;2023-03-23T14:45:52;97932.25;;;4.20;92.73
61757;BME280;57225;61.460;24.060;2023-03-23T14:48:38;97930.44;;;4.36;92.54
61757;BME280;57225;61.460;24.060;2023-03-23T14:51:23;97931.47;;;4.19;92.71
61757;BME280;57225;61.460;24.060;2023-03-23T14:54:08;97926.97;;;4.02;93.85
61757;BME280;57225;61.460;24.060;2023-03-23T14:56:54;97927.84;;;3.95;95.39
61757;BME280;57225;61.460;24.060;2023-03-23T14:59:46;97917.22;;;3.94;95.78
61757;BME280;57225;61.460;24.060;2023-03-23T15:02:35;97927.00;;;3.98;95.80
61757;BME280;57225;61.460;24.060;2023-03-23T15:05:37;97938.41;;;4.00;95.77
61757;BME280;57225;61.460;24.060;2023-03-23T15:08:29;97935.16;;;4.09;93.14
61757;BME280;57225;61.460;24.060;2023-03-23T15:14:08;97944.66;;;4.04;93.76
61757;BME280;57225;61.460;24.060;2023-03-23T15:16:55;97946.03;;;3.86;95.89
61757;BME280;57225;61.460;24.060;2023-03-23T15:19:42;97946.94;;;3.76;97.93
61757;BME280;57225;61.460;24.060;2023-03-23T15:22:30;97944.66;;;3.71;97.39
61757;BME280;57225;61.460;24.060;2023-03-23T15:25:24;97944.28;;;3.69;98.55
61757;BME280;57225;61.460;24.060;2023-03-23T15:28:21;97954.19;;;3.62;99.38
61757;BME280;57225;61.460;24.060;2023-03-23T15:31:06;97962.91;;;3.57;100.00
61757;BME280;57225;61.460;24.060;2023-03-23T15:33:56;97963.63;;;3.61;99.59
61757;BME280;57225;61.460;24.060;2023-03-23T15:36:42;97960.91;;;3.58;100.00
61757;BME280;57225;61.460;24.060;2023-03-23T15:39:28;97970.69;;;3.62;99.38
61757;BME280;57225;61.460;24.060;2023-03-23T15:42:28;97961.50;;;3.39;100.00
61757;BME280;57225;61.460;24.060;2023-03-23T15:48:08;97965.31;;;3.52;100.00
61757;BME280;57225;61.460;24.060;2023-03-23T15:50:53;97982.63;;;3.49;100.00
61757;BME280;57225;61.460;24.060;2023-03-23T15:53:39;97979.09;;;3.48;100.00
61757;BME280;57225;61.460;24.060;2023-03-23T15:56:24;97982.63;;;3.49;99.12
61757;BME280;57225;61.460;24.060;2023-03-23T15:59:09;97992.63;;;3.32;100.00
61757;BME280;57225;61.460;24.060;2023-03-23T16:01:54;97997.34;;;3.32;100.00
61757;BME280;57225;61.460;24.060;2023-03-23T16:04:40;98006.44;;;3.25;100.00
61757;BME280;57225;61.460;24.060;2023-03-23T16:07:24;98005.72;;;3.17;99.52
61757;BME280;57225;61.460;24.060;2023-03-23T16:10:15;97999.44;;;3.17;99.57
61757;BME280;57225;61.460;24.060;2023-03-23T16:16:03;98008.06;;;3.19;98.35
61757;BME280;57225;61.460;24.060;2023-03-23T16:18:49;97996.09;;;2.92;100.00
61757;BME280;57225;61.460;24.060;2023-03-23T16:21:36;98011.50;;;2.82;100.00
61757;BME280;57225;61.460;24.060;2023-03-23T16:24:21;98014.56;;;2.91;100.00
61757;BME280;57225;61.460;24.060;2023-03-23T16:27:05;98000.97;;;2.70;100.00
61757;BME280;57225;61.460;24.060;2023-03-23T16:29:52;98012.75;;;2.67;100.00
61757;BME280;57225;61.460;24.060;2023-03-23T16:32:36;98005.44;;;2.46;100.00
61757;BME280;57225;61.460;24.060;2023-03-23T16:35:21;98007.75;;;2.51;100.00